sensor_id;sensor_type;location;lat;lon;timestamp;temperature;humidity
65291;SHT30;51893;59.754;10.110;2023-04-24T00:01:57;7.38;82.51
65291;SHT30;51893;59.754;10.110;2023-04-24T00:04:29;7.36;82.64
65291;SHT30;51893;59.754;10.110;2023-04-24T00:06:58;7.36;82.77
65291;SHT30;51893;59.754;10.110;2023-04-24T00:09:27;7.38;82.85
65291;SHT30;51893;59.754;10.110;2023-04-24T00:11:55;7.39;82.79
65291;SHT30;51893;59.754;10.110;2023-04-24T00:14:26;7.39;82.75
65291;SHT30;51893;59.754;10.110;2023-04-24T00:16:54;7.34;82.73
65291;SHT30;51893;59.754;10.110;2023-04-24T00:19:22;7.34;82.67
65291;SHT30;51893;59.754;10.110;2023-04-24T00:21:52;7.31;82.66
65291;SHT30;51893;59.754;10.110;2023-04-24T00:24:22;7.30;82.62
65291;SHT30;51893;59.754;10.110;2023-04-24T00:26:50;7.26;82.71
65291;SHT30;51893;59.754;10.110;2023-04-24T00:29:19;7.20;82.71
65291;SHT30;51893;59.754;10.110;2023-04-24T00:31:47;7.15;82.82
65291;SHT30;51893;59.754;10.110;2023-04-24T00:34:17;7.11;82.91
65291;SHT30;51893;59.754;10.110;2023-04-24T00:36:45;7.10;83.04
65291;SHT30;51893;59.754;10.110;2023-04-24T00:39:13;7.07;83.01
65291;SHT30;51893;59.754;10.110;2023-04-24T00:41:41;7.05;83.10
65291;SHT30;51893;59.754;10.110;2023-04-24T00:44:10;7.05;83.00
65291;SHT30;51893;59.754;10.110;2023-04-24T00:46:41;7.05;82.93
65291;SHT30;51893;59.754;10.110;2023-04-24T00:49:12;7.04;82.88
65291;SHT30;51893;59.754;10.110;2023-04-24T00:51:41;7.05;82.92
65291;SHT30;51893;59.754;10.110;2023-04-24T00:54:13;7.05;82.95
65291;SHT30;51893;59.754;10.110;2023-04-24T00:56:41;7.07;83.21
65291;SHT30;51893;59.754;10.110;2023-04-24T00:59:16;7.05;83.18
65291;SHT30;51893;59.754;10.110;2023-04-24T01:01:46;6.99;83.19
65291;SHT30;51893;59.754;10.110;2023-04-24T01:04:14;6.97;83.27
65291;SHT30;51893;59.754;10.110;2023-04-24T01:06:46;6.96;83.36
65291;SHT30;51893;59.754;10.110;2023-04-24T01:09:23;6.92;83.37
65291;SHT30;51893;59.754;10.110;2023-04-24T01:11:52;6.86;83.35
65291;SHT30;51893;59.754;10.110;2023-04-24T01:14:21;6.81;83.60
65291;SHT30;51893;59.754;10.110;2023-04-24T01:16:50;6.77;83.70
65291;SHT30;51893;59.754;10.110;2023-04-24T01:19:18;6.76;83.82
65291;SHT30;51893;59.754;10.110;2023-04-24T01:21:50;6.74;83.80
65291;SHT30;51893;59.754;10.110;2023-04-24T01:24:26;6.73;83.70
65291;SHT30;51893;59.754;10.110;2023-04-24T01:26:55;6.73;83.72
65291;SHT30;51893;59.754;10.110;2023-04-24T01:29:24;6.71;83.86
65291;SHT30;51893;59.754;10.110;2023-04-24T01:31:52;6.71;83.97
65291;SHT30;51893;59.754;10.110;2023-04-24T01:34:22;6.74;84.22
65291;SHT30;51893;59.754;10.110;2023-04-24T01:36:51;6.76;84.16
65291;SHT30;51893;59.754;10.110;2023-04-24T01:39:19;6.72;84.31
65291;SHT30;51893;59.754;10.110;2023-04-24T01:41:49;6.66;84.52
65291;SHT30;51893;59.754;10.110;2023-04-24T01:44:20;6.62;84.69
65291;SHT30;51893;59.754;10.110;2023-04-24T01:46:51;6.60;84.74
65291;SHT30;51893;59.754;10.110;2023-04-24T01:49:22;6.57;84.70
65291;SHT30;51893;59.754;10.110;2023-04-24T01:51:58;6.55;84.90
65291;SHT30;51893;59.754;10.110;2023-04-24T01:54:26;6.56;85.02
65291;SHT30;51893;59.754;10.110;2023-04-24T01:56:55;6.59;85.14
65291;SHT30;51893;59.754;10.110;2023-04-24T01:59:22;6.62;85.19
65291;SHT30;51893;59.754;10.110;2023-04-24T02:02:00;6.60;84.94
65291;SHT30;51893;59.754;10.110;2023-04-24T02:04:28;6.56;84.71
65291;SHT30;51893;59.754;10.110;2023-04-24T02:06:56;6.53;84.74
65291;SHT30;51893;59.754;10.110;2023-04-24T02:09:24;6.52;84.95
65291;SHT30;51893;59.754;10.110;2023-04-24T02:11:53;6.57;85.13
65291;SHT30;51893;59.754;10.110;2023-04-24T02:14:22;6.57;85.26
65291;SHT30;51893;59.754;10.110;2023-04-24T02:16:50;6.55;85.23
65291;SHT30;51893;59.754;10.110;2023-04-24T02:19:19;6.55;85.28
65291;SHT30;51893;59.754;10.110;2023-04-24T02:21:46;6.57;85.33
65291;SHT30;51893;59.754;10.110;2023-04-24T02:24:17;6.54;85.23
65291;SHT30;51893;59.754;10.110;2023-04-24T02:26:46;6.50;85.15
65291;SHT30;51893;59.754;10.110;2023-04-24T02:29:14;6.48;84.86
65291;SHT30;51893;59.754;10.110;2023-04-24T02:31:45;6.43;84.85
65291;SHT30;51893;59.754;10.110;2023-04-24T02:34:13;6.44;85.09
65291;SHT30;51893;59.754;10.110;2023-04-24T02:36:42;6.42;85.10
65291;SHT30;51893;59.754;10.110;2023-04-24T02:39:09;6.41;85.13
65291;SHT30;51893;59.754;10.110;2023-04-24T02:41:38;6.39;85.08
65291;SHT30;51893;59.754;10.110;2023-04-24T02:44:06;6.38;85.17
65291;SHT30;51893;59.754;10.110;2023-04-24T02:46:34;6.40;85.19
65291;SHT30;51893;59.754;10.110;2023-04-24T02:49:04;6.39;84.93
65291;SHT30;51893;59.754;10.110;2023-04-24T02:51:32;6.33;84.73
65291;SHT30;51893;59.754;10.110;2023-04-24T02:54:00;6.31;84.71
65291;SHT30;51893;59.754;10.110;2023-04-24T02:56:31;6.32;84.71
65291;SHT30;51893;59.754;10.110;2023-04-24T02:59:00;6.33;84.79
65291;SHT30;51893;59.754;10.110;2023-04-24T03:01:28;6.33;84.83
65291;SHT30;51893;59.754;10.110;2023-04-24T03:03:57;6.32;84.93
65291;SHT30;51893;59.754;10.110;2023-04-24T03:06:26;6.35;85.01
65291;SHT30;51893;59.754;10.110;2023-04-24T03:08:54;6.38;85.11
65291;SHT30;51893;59.754;10.110;2023-04-24T03:11:22;6.38;84.98
65291;SHT30;51893;59.754;10.110;2023-04-24T03:13:52;6.38;84.93
65291;SHT30;51893;59.754;10.110;2023-04-24T03:16:21;6.38;84.83
65291;SHT30;51893;59.754;10.110;2023-04-24T03:18:50;6.33;84.65
65291;SHT30;51893;59.754;10.110;2023-04-24T03:21:21;6.26;84.71
65291;SHT30;51893;59.754;10.110;2023-04-24T03:23:53;6.28;84.87
65291;SHT30;51893;59.754;10.110;2023-04-24T03:26:22;6.31;84.90
65291;SHT30;51893;59.754;10.110;2023-04-24T03:28:50;6.33;84.81
65291;SHT30;51893;59.754;10.110;2023-04-24T03:31:18;6.32;84.79
65291;SHT30;51893;59.754;10.110;2023-04-24T03:33:49;6.34;84.89
65291;SHT30;51893;59.754;10.110;2023-04-24T03:36:21;6.32;84.72
65291;SHT30;51893;59.754;10.110;2023-04-24T03:38:49;6.32;84.88
65291;SHT30;51893;59.754;10.110;2023-04-24T03:41:17;6.33;84.76
65291;SHT30;51893;59.754;10.110;2023-04-24T03:43:47;6.34;84.66
65291;SHT30;51893;59.754;10.110;2023-04-24T03:46:15;6.38;84.67
65291;SHT30;51893;59.754;10.110;2023-04-24T03:48:44;6.40;84.58
65291;SHT30;51893;59.754;10.110;2023-04-24T03:51:12;6.33;84.44
65291;SHT30;51893;59.754;10.110;2023-04-24T03:53:41;6.27;84.54
65291;SHT30;51893;59.754;10.110;2023-04-24T03:56:09;6.25;84.68
65291;SHT30;51893;59.754;10.110;2023-04-24T03:58:37;6.25;84.67
65291;SHT30;51893;59.754;10.110;2023-04-24T04:01:05;6.22;84.70
65291;SHT30;51893;59.754;10.110;2023-04-24T04:03:33;6.20;84.80
65291;SHT30;51893;59.754;10.110;2023-04-24T04:06:02;6.20;85.04
65291;SHT30;51893;59.754;10.110;2023-04-24T04:08:31;6.26;85.08
65291;SHT30;51893;59.754;10.110;2023-04-24T04:10:59;6.27;85.05
65291;SHT30;51893;59.754;10.110;2023-04-24T04:13:31;6.21;84.95
65291;SHT30;51893;59.754;10.110;2023-04-24T04:16:00;6.21;84.90
65291;SHT30;51893;59.754;10.110;2023-04-24T04:18:29;6.22;84.94
65291;SHT30;51893;59.754;10.110;2023-04-24T04:21:01;6.19;84.85
65291;SHT30;51893;59.754;10.110;2023-04-24T04:23:30;6.19;84.96
65291;SHT30;51893;59.754;10.110;2023-04-24T04:25:59;6.17;84.89
65291;SHT30;51893;59.754;10.110;2023-04-24T04:28:29;6.10;84.86
65291;SHT30;51893;59.754;10.110;2023-04-24T04:31:01;6.05;84.95
65291;SHT30;51893;59.754;10.110;2023-04-24T04:33:31;6.00;85.18
65291;SHT30;51893;59.754;10.110;2023-04-24T04:35:59;5.96;85.37
65291;SHT30;51893;59.754;10.110;2023-04-24T04:38:34;5.92;85.55
65291;SHT30;51893;59.754;10.110;2023-04-24T04:41:03;5.89;85.69
65291;SHT30;51893;59.754;10.110;2023-04-24T04:43:31;5.87;85.86
65291;SHT30;51893;59.754;10.110;2023-04-24T04:46:00;5.89;85.95
65291;SHT30;51893;59.754;10.110;2023-04-24T04:48:31;5.96;86.10
65291;SHT30;51893;59.754;10.110;2023-04-24T04:50:59;5.99;85.93
65291;SHT30;51893;59.754;10.110;2023-04-24T04:53:32;6.05;85.86
65291;SHT30;51893;59.754;10.110;2023-04-24T04:56:01;6.06;85.76
65291;SHT30;51893;59.754;10.110;2023-04-24T04:58:28;6.07;85.65
65291;SHT30;51893;59.754;10.110;2023-04-24T05:00:57;6.02;85.64
65291;SHT30;51893;59.754;10.110;2023-04-24T05:03:25;6.00;85.70
65291;SHT30;51893;59.754;10.110;2023-04-24T05:05:57;5.98;85.67
65291;SHT30;51893;59.754;10.110;2023-04-24T05:08:26;5.95;85.69
65291;SHT30;51893;59.754;10.110;2023-04-24T05:10:55;5.90;85.64
65291;SHT30;51893;59.754;10.110;2023-04-24T05:13:23;5.85;85.87
65291;SHT30;51893;59.754;10.110;2023-04-24T05:16:06;5.84;86.12
65291;SHT30;51893;59.754;10.110;2023-04-24T05:18:34;5.83;86.09
65291;SHT30;51893;59.754;10.110;2023-04-24T05:21:03;5.87;86.23
65291;SHT30;51893;59.754;10.110;2023-04-24T05:23:31;5.95;86.17
65291;SHT30;51893;59.754;10.110;2023-04-24T05:25:59;6.03;85.90
65291;SHT30;51893;59.754;10.110;2023-04-24T05:28:28;6.11;85.67
65291;SHT30;51893;59.754;10.110;2023-04-24T05:30:56;6.10;85.50
65291;SHT30;51893;59.754;10.110;2023-04-24T05:33:25;6.09;85.42
65291;SHT30;51893;59.754;10.110;2023-04-24T05:35:56;6.07;85.43
65291;SHT30;51893;59.754;10.110;2023-04-24T05:38:26;6.07;85.51
65291;SHT30;51893;59.754;10.110;2023-04-24T05:40:55;6.03;85.57
65291;SHT30;51893;59.754;10.110;2023-04-24T05:43:23;6.00;85.59
65291;SHT30;51893;59.754;10.110;2023-04-24T05:45:55;5.95;85.65
65291;SHT30;51893;59.754;10.110;2023-04-24T05:48:23;5.90;85.77
65291;SHT30;51893;59.754;10.110;2023-04-24T05:50:51;5.88;85.98
65291;SHT30;51893;59.754;10.110;2023-04-24T05:53:20;5.85;86.16
65291;SHT30;51893;59.754;10.110;2023-04-24T05:55:49;5.84;86.27
65291;SHT30;51893;59.754;10.110;2023-04-24T05:58:18;5.80;86.14
65291;SHT30;51893;59.754;10.110;2023-04-24T06:00:48;5.79;86.18
65291;SHT30;51893;59.754;10.110;2023-04-24T06:03:17;5.76;86.20
65291;SHT30;51893;59.754;10.110;2023-04-24T06:05:49;5.74;86.29
65291;SHT30;51893;59.754;10.110;2023-04-24T06:08:18;5.72;86.38
65291;SHT30;51893;59.754;10.110;2023-04-24T06:10:47;5.69;86.43
65291;SHT30;51893;59.754;10.110;2023-04-24T06:13:15;5.69;86.50
65291;SHT30;51893;59.754;10.110;2023-04-24T06:15:44;5.69;86.57
65291;SHT30;51893;59.754;10.110;2023-04-24T06:18:15;5.68;86.47
65291;SHT30;51893;59.754;10.110;2023-04-24T06:20:43;5.67;86.49
65291;SHT30;51893;59.754;10.110;2023-04-24T06:23:16;5.66;86.58
65291;SHT30;51893;59.754;10.110;2023-04-24T06:25:44;5.64;86.57
65291;SHT30;51893;59.754;10.110;2023-04-24T06:28:13;5.64;86.58
65291;SHT30;51893;59.754;10.110;2023-04-24T06:30:45;5.63;86.53
65291;SHT30;51893;59.754;10.110;2023-04-24T06:33:13;5.63;86.50
65291;SHT30;51893;59.754;10.110;2023-04-24T06:35:47;5.59;86.48
65291;SHT30;51893;59.754;10.110;2023-04-24T06:38:15;5.57;86.56
65291;SHT30;51893;59.754;10.110;2023-04-24T06:40:44;5.56;86.68
65291;SHT30;51893;59.754;10.110;2023-04-24T06:43:13;5.57;86.63
65291;SHT30;51893;59.754;10.110;2023-04-24T06:45:44;5.56;86.56
65291;SHT30;51893;59.754;10.110;2023-04-24T06:48:15;5.59;86.68
65291;SHT30;51893;59.754;10.110;2023-04-24T06:50:44;5.61;86.62
65291;SHT30;51893;59.754;10.110;2023-04-24T06:53:13;5.62;86.63
65291;SHT30;51893;59.754;10.110;2023-04-24T06:55:42;5.63;86.60
65291;SHT30;51893;59.754;10.110;2023-04-24T06:58:12;5.63;86.60
65291;SHT30;51893;59.754;10.110;2023-04-24T07:00:45;5.65;86.70
65291;SHT30;51893;59.754;10.110;2023-04-24T07:03:16;5.70;86.68
65291;SHT30;51893;59.754;10.110;2023-04-24T07:05:46;5.70;86.36
65291;SHT30;51893;59.754;10.110;2023-04-24T07:08:16;5.67;86.29
65291;SHT30;51893;59.754;10.110;2023-04-24T07:10:46;5.63;86.34
65291;SHT30;51893;59.754;10.110;2023-04-24T07:13:15;5.61;86.45
65291;SHT30;51893;59.754;10.110;2023-04-24T07:15:44;5.63;86.44
65291;SHT30;51893;59.754;10.110;2023-04-24T07:18:16;5.67;86.36
65291;SHT30;51893;59.754;10.110;2023-04-24T07:20:52;5.71;86.42
65291;SHT30;51893;59.754;10.110;2023-04-24T07:23:21;5.72;86.22
65291;SHT30;51893;59.754;10.110;2023-04-24T07:25:51;5.72;85.91
65291;SHT30;51893;59.754;10.110;2023-04-24T07:28:23;5.77;85.96
65291;SHT30;51893;59.754;10.110;2023-04-24T07:30:56;5.82;85.91
65291;SHT30;51893;59.754;10.110;2023-04-24T07:33:26;5.86;85.50
65291;SHT30;51893;59.754;10.110;2023-04-24T07:35:57;5.86;85.37
65291;SHT30;51893;59.754;10.110;2023-04-24T07:38:29;5.84;85.33
65291;SHT30;51893;59.754;10.110;2023-04-24T07:41:01;5.82;85.48
65291;SHT30;51893;59.754;10.110;2023-04-24T07:43:30;5.75;85.71
65291;SHT30;51893;59.754;10.110;2023-04-24T07:46:00;5.73;85.76
65291;SHT30;51893;59.754;10.110;2023-04-24T07:48:35;5.73;85.75
65291;SHT30;51893;59.754;10.110;2023-04-24T07:51:04;5.71;85.84
65291;SHT30;51893;59.754;10.110;2023-04-24T07:53:32;5.71;85.78
65291;SHT30;51893;59.754;10.110;2023-04-24T07:56:01;5.73;85.78
65291;SHT30;51893;59.754;10.110;2023-04-24T07:58:30;5.75;85.70
65291;SHT30;51893;59.754;10.110;2023-04-24T08:00:59;5.77;85.49
65291;SHT30;51893;59.754;10.110;2023-04-24T08:03:27;5.77;85.55
65291;SHT30;51893;59.754;10.110;2023-04-24T08:05:56;5.77;85.57
65291;SHT30;51893;59.754;10.110;2023-04-24T08:08:24;5.77;85.52
65291;SHT30;51893;59.754;10.110;2023-04-24T08:10:53;5.74;85.60
65291;SHT30;51893;59.754;10.110;2023-04-24T08:13:24;5.70;85.55
65291;SHT30;51893;59.754;10.110;2023-04-24T08:15:52;5.67;85.42
65291;SHT30;51893;59.754;10.110;2023-04-24T08:18:24;5.66;85.47
65291;SHT30;51893;59.754;10.110;2023-04-24T08:20:56;5.63;85.65
65291;SHT30;51893;59.754;10.110;2023-04-24T08:23:29;5.61;85.78
65291;SHT30;51893;59.754;10.110;2023-04-24T08:25:57;5.57;85.70
65291;SHT30;51893;59.754;10.110;2023-04-24T08:28:32;5.55;85.75
65291;SHT30;51893;59.754;10.110;2023-04-24T08:31:01;5.52;85.84
65291;SHT30;51893;59.754;10.110;2023-04-24T08:33:29;5.49;85.96
65291;SHT30;51893;59.754;10.110;2023-04-24T08:36:03;5.45;86.06
65291;SHT30;51893;59.754;10.110;2023-04-24T08:38:33;5.45;86.27
65291;SHT30;51893;59.754;10.110;2023-04-24T08:41:01;5.45;86.40
65291;SHT30;51893;59.754;10.110;2023-04-24T08:43:31;5.46;86.39
65291;SHT30;51893;59.754;10.110;2023-04-24T08:46:04;5.47;86.34
65291;SHT30;51893;59.754;10.110;2023-04-24T08:48:38;5.50;86.25
65291;SHT30;51893;59.754;10.110;2023-04-24T08:51:08;5.53;85.98
65291;SHT30;51893;59.754;10.110;2023-04-24T08:53:39;5.57;85.88
65291;SHT30;51893;59.754;10.110;2023-04-24T08:56:08;5.54;85.87
65291;SHT30;51893;59.754;10.110;2023-04-24T08:58:45;5.51;85.91
65291;SHT30;51893;59.754;10.110;2023-04-24T09:01:16;5.50;85.84
65291;SHT30;51893;59.754;10.110;2023-04-24T09:03:50;5.52;85.77
65291;SHT30;51893;59.754;10.110;2023-04-24T09:06:21;5.54;85.65
65291;SHT30;51893;59.754;10.110;2023-04-24T09:08:49;5.56;85.37
65291;SHT30;51893;59.754;10.110;2023-04-24T09:11:24;5.55;85.42
65291;SHT30;51893;59.754;10.110;2023-04-24T09:13:53;5.50;85.52
65291;SHT30;51893;59.754;10.110;2023-04-24T09:16:26;5.50;85.58
65291;SHT30;51893;59.754;10.110;2023-04-24T09:18:55;5.50;85.38
65291;SHT30;51893;59.754;10.110;2023-04-24T09:21:25;5.53;85.35
65291;SHT30;51893;59.754;10.110;2023-04-24T09:24:06;5.61;85.58
65291;SHT30;51893;59.754;10.110;2023-04-24T09:26:49;5.63;85.72
65291;SHT30;51893;59.754;10.110;2023-04-24T09:29:37;5.61;85.90
65291;SHT30;51893;59.754;10.110;2023-04-24T09:32:18;5.59;85.88
65291;SHT30;51893;59.754;10.110;2023-04-24T09:35:04;5.59;85.81
65291;SHT30;51893;59.754;10.110;2023-04-24T09:40:16;5.62;85.40
65291;SHT30;51893;59.754;10.110;2023-04-24T09:42:54;5.65;85.31
65291;SHT30;51893;59.754;10.110;2023-04-24T09:45:34;5.69;85.21
65291;SHT30;51893;59.754;10.110;2023-04-24T09:48:04;5.68;85.20
65291;SHT30;51893;59.754;10.110;2023-04-24T09:50:36;5.75;85.31
65291;SHT30;51893;59.754;10.110;2023-04-24T09:53:05;5.84;85.43
65291;SHT30;51893;59.754;10.110;2023-04-24T09:55:39;5.92;85.25
65291;SHT30;51893;59.754;10.110;2023-04-24T09:58:16;5.96;85.08
65291;SHT30;51893;59.754;10.110;2023-04-24T10:00:49;5.94;85.12
65291;SHT30;51893;59.754;10.110;2023-04-24T10:03:24;5.96;85.12
65291;SHT30;51893;59.754;10.110;2023-04-24T10:05:54;5.88;84.99
65291;SHT30;51893;59.754;10.110;2023-04-24T10:08:32;5.89;85.34
65291;SHT30;51893;59.754;10.110;2023-04-24T10:11:04;5.94;85.46
65291;SHT30;51893;59.754;10.110;2023-04-24T10:13:33;5.96;85.27
65291;SHT30;51893;59.754;10.110;2023-04-24T10:16:04;5.95;85.05
65291;SHT30;51893;59.754;10.110;2023-04-24T10:18:34;5.91;84.89
65291;SHT30;51893;59.754;10.110;2023-04-24T10:21:03;5.91;84.95
65291;SHT30;51893;59.754;10.110;2023-04-24T10:23:33;5.93;84.92
65291;SHT30;51893;59.754;10.110;2023-04-24T10:26:01;5.94;84.96
65291;SHT30;51893;59.754;10.110;2023-04-24T10:28:30;5.98;84.91
65291;SHT30;51893;59.754;10.110;2023-04-24T10:31:00;6.02;84.96
65291;SHT30;51893;59.754;10.110;2023-04-24T10:33:31;6.03;84.89
65291;SHT30;51893;59.754;10.110;2023-04-24T10:36:00;6.02;84.86
65291;SHT30;51893;59.754;10.110;2023-04-24T10:38:30;5.99;84.79
65291;SHT30;51893;59.754;10.110;2023-04-24T10:41:09;5.93;84.63
65291;SHT30;51893;59.754;10.110;2023-04-24T10:44:10;5.91;84.59
65291;SHT30;51893;59.754;10.110;2023-04-24T10:46:45;5.91;84.56
65291;SHT30;51893;59.754;10.110;2023-04-24T10:49:31;5.89;84.41
65291;SHT30;51893;59.754;10.110;2023-04-24T10:52:00;5.81;84.07
65291;SHT30;51893;59.754;10.110;2023-04-24T10:54:46;5.80;84.19
65291;SHT30;51893;59.754;10.110;2023-04-24T10:59:50;5.75;84.08
65291;SHT30;51893;59.754;10.110;2023-04-24T11:02:49;5.61;83.86
65291;SHT30;51893;59.754;10.110;2023-04-24T11:05:21;5.61;84.07
65291;SHT30;51893;59.754;10.110;2023-04-24T11:08:13;5.61;84.16
65291;SHT30;51893;59.754;10.110;2023-04-24T11:10:44;5.59;84.06
65291;SHT30;51893;59.754;10.110;2023-04-24T11:13:21;5.56;84.05
65291;SHT30;51893;59.754;10.110;2023-04-24T11:21:40;5.41;83.99
65291;SHT30;51893;59.754;10.110;2023-04-24T11:27:18;5.41;83.97
65291;SHT30;51893;59.754;10.110;2023-04-24T11:32:27;5.31;83.68
65291;SHT30;51893;59.754;10.110;2023-04-24T11:35:20;5.25;83.72
65291;SHT30;51893;59.754;10.110;2023-04-24T11:37:55;5.18;83.74
65291;SHT30;51893;59.754;10.110;2023-04-24T11:40:29;5.11;83.69
65291;SHT30;51893;59.754;10.110;2023-04-24T11:42:59;5.05;83.56
65291;SHT30;51893;59.754;10.110;2023-04-24T11:45:29;5.01;83.60
65291;SHT30;51893;59.754;10.110;2023-04-24T11:47:59;5.04;83.78
65291;SHT30;51893;59.754;10.110;2023-04-24T11:50:28;4.98;83.60
65291;SHT30;51893;59.754;10.110;2023-04-24T11:52:57;4.93;83.67
65291;SHT30;51893;59.754;10.110;2023-04-24T11:55:26;4.90;83.74
65291;SHT30;51893;59.754;10.110;2023-04-24T11:57:58;4.92;83.79
65291;SHT30;51893;59.754;10.110;2023-04-24T12:00:30;4.95;83.76
65291;SHT30;51893;59.754;10.110;2023-04-24T12:03:13;4.99;83.71
65291;SHT30;51893;59.754;10.110;2023-04-24T12:05:41;4.96;83.57
65291;SHT30;51893;59.754;10.110;2023-04-24T12:08:10;4.97;83.65
65291;SHT30;51893;59.754;10.110;2023-04-24T12:10:44;4.92;83.55
65291;SHT30;51893;59.754;10.110;2023-04-24T12:13:12;4.81;83.51
65291;SHT30;51893;59.754;10.110;2023-04-24T12:15:43;4.82;83.58
65291;SHT30;51893;59.754;10.110;2023-04-24T12:18:12;4.82;83.79
65291;SHT30;51893;59.754;10.110;2023-04-24T12:20:43;4.83;84.17
65291;SHT30;51893;59.754;10.110;2023-04-24T12:23:11;4.82;84.10
65291;SHT30;51893;59.754;10.110;2023-04-24T12:25:39;4.80;84.10
65291;SHT30;51893;59.754;10.110;2023-04-24T12:28:10;4.79;84.12
65291;SHT30;51893;59.754;10.110;2023-04-24T12:30:46;4.82;84.19
65291;SHT30;51893;59.754;10.110;2023-04-24T12:33:20;4.83;84.04
65291;SHT30;51893;59.754;10.110;2023-04-24T12:35:53;4.83;83.89
65291;SHT30;51893;59.754;10.110;2023-04-24T12:38:26;4.77;83.78
65291;SHT30;51893;59.754;10.110;2023-04-24T12:41:05;4.75;83.78
65291;SHT30;51893;59.754;10.110;2023-04-24T12:43:36;4.65;83.69
65291;SHT30;51893;59.754;10.110;2023-04-24T12:46:06;4.61;83.72
65291;SHT30;51893;59.754;10.110;2023-04-24T12:48:34;4.55;84.07
65291;SHT30;51893;59.754;10.110;2023-04-24T12:51:04;4.57;84.04
65291;SHT30;51893;59.754;10.110;2023-04-24T12:53:34;4.57;84.08
65291;SHT30;51893;59.754;10.110;2023-04-24T12:56:02;4.56;84.05
65291;SHT30;51893;59.754;10.110;2023-04-24T12:58:31;4.57;83.99
65291;SHT30;51893;59.754;10.110;2023-04-24T13:01:00;4.55;84.09
65291;SHT30;51893;59.754;10.110;2023-04-24T13:03:28;4.56;84.13
65291;SHT30;51893;59.754;10.110;2023-04-24T13:05:59;4.52;84.08
65291;SHT30;51893;59.754;10.110;2023-04-24T13:08:27;4.49;84.06
65291;SHT30;51893;59.754;10.110;2023-04-24T13:10:55;4.47;83.90
65291;SHT30;51893;59.754;10.110;2023-04-24T13:13:26;4.42;83.92
65291;SHT30;51893;59.754;10.110;2023-04-24T13:15:54;4.39;84.00
65291;SHT30;51893;59.754;10.110;2023-04-24T13:18:23;4.39;84.17
65291;SHT30;51893;59.754;10.110;2023-04-24T13:20:53;4.39;84.24
65291;SHT30;51893;59.754;10.110;2023-04-24T13:23:22;4.36;84.11
65291;SHT30;51893;59.754;10.110;2023-04-24T13:25:50;4.27;84.08
65291;SHT30;51893;59.754;10.110;2023-04-24T13:28:18;4.20;84.28
65291;SHT30;51893;59.754;10.110;2023-04-24T13:30:46;4.20;84.64
65291;SHT30;51893;59.754;10.110;2023-04-24T13:33:16;4.18;84.56
65291;SHT30;51893;59.754;10.110;2023-04-24T13:35:45;4.20;84.49
65291;SHT30;51893;59.754;10.110;2023-04-24T13:38:14;4.19;84.38
65291;SHT30;51893;59.754;10.110;2023-04-24T13:40:42;4.15;84.44
65291;SHT30;51893;59.754;10.110;2023-04-24T13:43:13;4.16;84.45
65291;SHT30;51893;59.754;10.110;2023-04-24T13:45:43;4.12;84.49
65291;SHT30;51893;59.754;10.110;2023-04-24T13:48:11;4.09;84.63
65291;SHT30;51893;59.754;10.110;2023-04-24T13:50:43;4.05;84.73
65291;SHT30;51893;59.754;10.110;2023-04-24T13:53:12;4.02;85.03
65291;SHT30;51893;59.754;10.110;2023-04-24T13:55:40;3.98;84.91
65291;SHT30;51893;59.754;10.110;2023-04-24T13:58:09;3.93;85.04
65291;SHT30;51893;59.754;10.110;2023-04-24T14:00:42;3.89;85.20
65291;SHT30;51893;59.754;10.110;2023-04-24T14:03:11;3.88;85.36
65291;SHT30;51893;59.754;10.110;2023-04-24T14:05:40;3.87;85.34
65291;SHT30;51893;59.754;10.110;2023-04-24T14:08:08;3.91;85.41
65291;SHT30;51893;59.754;10.110;2023-04-24T14:10:36;3.88;85.34
65291;SHT30;51893;59.754;10.110;2023-04-24T14:13:08;3.84;85.43
65291;SHT30;51893;59.754;10.110;2023-04-24T14:15:40;3.81;85.53
65291;SHT30;51893;59.754;10.110;2023-04-24T14:18:08;3.77;85.59
65291;SHT30;51893;59.754;10.110;2023-04-24T14:20:36;3.75;85.73
65291;SHT30;51893;59.754;10.110;2023-04-24T14:23:04;3.75;85.89
65291;SHT30;51893;59.754;10.110;2023-04-24T14:25:32;3.76;85.86
65291;SHT30;51893;59.754;10.110;2023-04-24T14:28:01;3.80;85.76
65291;SHT30;51893;59.754;10.110;2023-04-24T14:30:29;3.77;85.50
65291;SHT30;51893;59.754;10.110;2023-04-24T14:32:57;3.76;85.58
65291;SHT30;51893;59.754;10.110;2023-04-24T14:35:25;3.78;85.59
65291;SHT30;51893;59.754;10.110;2023-04-24T14:37:57;3.85;85.57
65291;SHT30;51893;59.754;10.110;2023-04-24T14:40:29;3.84;85.40
65291;SHT30;51893;59.754;10.110;2023-04-24T14:43:05;3.80;85.28
65291;SHT30;51893;59.754;10.110;2023-04-24T14:45:33;3.77;85.21
65291;SHT30;51893;59.754;10.110;2023-04-24T14:48:03;3.74;85.28
65291;SHT30;51893;59.754;10.110;2023-04-24T14:50:32;3.70;85.35
65291;SHT30;51893;59.754;10.110;2023-04-24T14:53:06;3.60;85.79
65291;SHT30;51893;59.754;10.110;2023-04-24T14:55:35;3.55;85.83
65291;SHT30;51893;59.754;10.110;2023-04-24T14:58:05;3.55;85.83
65291;SHT30;51893;59.754;10.110;2023-04-24T15:00:37;3.58;85.78
65291;SHT30;51893;59.754;10.110;2023-04-24T15:03:05;3.54;85.70
65291;SHT30;51893;59.754;10.110;2023-04-24T15:05:36;3.50;85.87
65291;SHT30;51893;59.754;10.110;2023-04-24T15:08:04;3.47;85.85
65291;SHT30;51893;59.754;10.110;2023-04-24T15:10:34;3.48;86.12
65291;SHT30;51893;59.754;10.110;2023-04-24T15:13:02;3.51;86.27
65291;SHT30;51893;59.754;10.110;2023-04-24T15:15:31;3.51;86.14
65291;SHT30;51893;59.754;10.110;2023-04-24T15:18:00;3.50;86.24
65291;SHT30;51893;59.754;10.110;2023-04-24T15:20:34;3.49;86.12
65291;SHT30;51893;59.754;10.110;2023-04-24T15:23:05;3.44;86.01
65291;SHT30;51893;59.754;10.110;2023-04-24T15:25:37;3.45;86.23
65291;SHT30;51893;59.754;10.110;2023-04-24T15:28:05;3.49;86.53
65291;SHT30;51893;59.754;10.110;2023-04-24T15:30:33;3.54;86.61
65291;SHT30;51893;59.754;10.110;2023-04-24T15:33:01;3.55;86.44
65291;SHT30;51893;59.754;10.110;2023-04-24T15:35:30;3.52;86.55
65291;SHT30;51893;59.754;10.110;2023-04-24T15:38:01;3.50;86.58
65291;SHT30;51893;59.754;10.110;2023-04-24T15:40:30;3.51;86.56
65291;SHT30;51893;59.754;10.110;2023-04-24T15:43:02;3.51;86.52
65291;SHT30;51893;59.754;10.110;2023-04-24T15:45:34;3.49;86.57
65291;SHT30;51893;59.754;10.110;2023-04-24T15:48:03;3.52;86.60
65291;SHT30;51893;59.754;10.110;2023-04-24T15:50:30;3.49;86.32
65291;SHT30;51893;59.754;10.110;2023-04-24T15:53:00;3.42;86.30
65291;SHT30;51893;59.754;10.110;2023-04-24T15:55:29;3.37;86.34
65291;SHT30;51893;59.754;10.110;2023-04-24T15:57:59;3.36;86.29
65291;SHT30;51893;59.754;10.110;2023-04-24T16:00:28;3.34;86.14
65291;SHT30;51893;59.754;10.110;2023-04-24T16:03:00;3.30;86.25
65291;SHT30;51893;59.754;10.110;2023-04-24T16:05:32;3.28;86.57
65291;SHT30;51893;59.754;10.110;2023-04-24T16:08:03;3.29;86.75